Kittery Point, ME

7:26 AM EST on December 03, 2016 (GMT -0500)
Pepperrell Cove | | Change Station

Elev 39 ft 43.08 °N, 70.69 °W | Updated 2 seconds ago

Partly Cloudy
Partly Cloudy
38.3 °F
Feels Like 35 °F
N
4.9
Wind Variable Wind from NW
Gusts 4.9 mph

Today
High -- | Low -- °F
--% Chance of Precip.
Yesterday
High -- | Low -- °F
Precip. -- in
Pressure 29.79 in
Visibility 10.0 miles
Clouds Few 6500 ft
Few 12000 ft
Windchill 35 °F
Dew Point 28 °F
Humidity 65%
Rainfall 0.00 in
Snow Depth Not available.
6:57 AM 4:08 PM
Waxing Crescent, 14% visible
METAR KPSM 031158Z 30008KT 250V310 10SM FEW065 FEW120 03/M03 A2978 RMK AO2A SLP087 T00251030 10032 20024 53020 CHINO RWY16 $
Pressure 29.79 in
Visibility 10.0 miles
Clouds Few 6500 ft
Few 12000 ft
Windchill 35 °F
Dew Point 28 °F
Humidity 65%
Rainfall 0.00 in
Snow Depth Not available.
6:57 AM 4:08 PM
Waxing Crescent, 14% visible
METAR KPSM 031158Z 30008KT 250V310 10SM FEW065 FEW120 03/M03 A2978 RMK AO2A SLP087 T00251030 10032 20024 53020 CHINO RWY16 $

10-Day Weather Forecast

Almanac

Astronomy

Dec. 03, 2016 Rise Set
Actual Time
Civil Twilight
Nautical Twilight
Astronomical Twilight
Moon
Length of Visible Light
Length of Day
Tomorrow will be .
, % of the Moon is Illuminated

Today's Extremes

State Highs State Lows

Community

WunderPhotos

Upload Photos

1,955,441 photos uploaded!

WunderBlog® & News

Nearby

Air Quality

  Air Quality AQ Index Pollutant
Not available.

Snow Depth

Station Depth Elevation

Earthquake Activity

City Distance Mag. Time & Date
Minimum magnitude displayed is 2.5.

Coastal Water Temperatures

Place Temperature

Stations

Nearby Weather Stations

Station Location Temp. Windchill Dew Point Humidity Wind Precip. Elev Updated Type
                   

Watches & Warnings

There are currently no watches in effect.